Time;durP1;ratioP1;P1;durP2;ratioP2;P2;SDS_P1;SDS_P2;PMS_P1;PMS_P2;Temp;Humidity;BMP_temperature;BMP_pressure;BME280_temperature;BME280_humidity;BME280_pressure;Samples;Min_cycle;Max_cycle;Signal;HPM_P1;HPM_P2
2021/10/29 00:00:15;;;;;;;21.83;16.53;;;;;;;4.95;100.00;98130.09;5015404;28;20343;-69
2021/10/29 00:02:43;;;;;;;22.47;17.60;;;;;;;4.97;100.00;98135.19;5017941;28;20323;-70
2021/10/29 00:05:11;;;;;;;23.27;17.47;;;;;;;4.99;100.00;98128.03;5021911;28;20318;-69
2021/10/29 00:07:39;;;;;;;20.77;16.83;;;;;;;4.93;100.00;98126.75;5008872;28;20357;-68
2021/10/29 00:10:09;;;;;;;21.67;15.73;;;;;;;4.81;100.00;98122.47;5020728;28;20246;-69
2021/10/29 00:12:37;;;;;;;27.03;18.90;;;;;;;4.86;100.00;98122.94;4982716;28;20775;-71
2021/10/29 00:15:05;;;;;;;20.10;17.23;;;;;;;4.87;100.00;98117.56;5008791;28;20715;-69
2021/10/29 00:17:33;;;;;;;22.40;17.63;;;;;;;4.89;100.00;98114.81;5019214;28;20211;-69
2021/10/29 00:20:01;;;;;;;22.60;17.63;;;;;;;4.93;100.00;98117.06;5018839;28;20433;-70
2021/10/29 00:22:29;;;;;;;24.67;17.70;;;;;;;4.86;100.00;98110.66;5008223;28;20724;-69
2021/10/29 00:24:58;;;;;;;22.13;16.80;;;;;;;4.77;100.00;98111.41;5015888;28;20758;-69
2021/10/29 00:27:27;;;;;;;22.00;16.80;;;;;;;4.81;100.00;98112.81;5018780;28;20212;-70
2021/10/29 00:29:55;;;;;;;23.23;18.47;;;;;;;4.83;100.00;98117.94;4976775;28;20579;-69
2021/10/29 00:32:23;;;;;;;21.33;16.53;;;;;;;4.78;100.00;98113.06;4976580;28;20540;-70
2021/10/29 00:34:51;;;;;;;21.23;16.37;;;;;;;4.68;100.00;98112.13;5013160;28;20203;-70
2021/10/29 00:37:19;;;;;;;21.50;17.50;;;;;;;4.66;100.00;98116.66;4996862;28;20221;-70
2021/10/29 00:39:47;;;;;;;23.47;16.83;;;;;;;4.69;100.00;98117.28;5019232;28;20204;-69
2021/10/29 00:42:15;;;;;;;23.50;18.10;;;;;;;4.56;100.00;98120.03;5005620;28;20445;-70
2021/10/29 00:44:45;;;;;;;19.53;16.13;;;;;;;4.62;100.00;98118.72;5018994;28;20663;-69
2021/10/29 00:47:13;;;;;;;22.30;18.40;;;;;;;4.57;100.00;98113.84;4982356;28;20364;-69
2021/10/29 00:49:41;;;;;;;21.00;16.63;;;;;;;4.57;100.00;98115.63;4990797;28;20216;-70
2021/10/29 00:52:09;;;;;;;23.43;18.33;;;;;;;4.52;100.00;98115.16;5021479;28;20228;-70
2021/10/29 00:54:38;;;;;;;23.43;17.27;;;;;;;4.43;100.00;98111.50;4996309;28;20357;-70
2021/10/29 00:57:06;;;;;;;19.80;14.43;;;;;;;4.42;100.00;98118.50;5008758;28;20270;-69
2021/10/29 00:59:34;;;;;;;21.50;15.13;;;;;;;4.40;100.00;98107.31;5016580;28;20356;-70
2021/10/29 01:02:04;;;;;;;19.87;15.30;;;;;;;4.40;100.00;98104.69;5017347;28;21419;-69
2021/10/29 01:04:32;;;;;;;19.43;16.10;;;;;;;4.39;100.00;98110.06;4975959;28;20278;-68
2021/10/29 01:07:00;;;;;;;20.70;15.60;;;;;;;4.39;100.00;98103.00;5017943;28;20675;-71
2021/10/29 01:09:28;;;;;;;19.33;15.93;;;;;;;4.39;100.00;98103.00;5015830;28;20213;-70
2021/10/29 01:11:57;;;;;;;20.43;15.37;;;;;;;4.24;100.00;98091.94;4997774;28;20554;-70
2021/10/29 01:14:25;;;;;;;19.13;15.40;;;;;;;4.27;100.00;98098.75;5013406;28;20418;-70
2021/10/29 01:16:53;;;;;;;18.40;15.17;;;;;;;4.30;100.00;98099.31;5011805;28;20235;-70
2021/10/29 01:19:23;;;;;;;18.50;14.77;;;;;;;4.31;100.00;98105.41;4973099;28;20239;-70
2021/10/29 01:21:53;;;;;;;21.93;16.97;;;;;;;4.30;100.00;98107.19;5012287;28;20884;-70
2021/10/29 01:24:21;;;;;;;21.80;15.60;;;;;;;4.44;100.00;98110.53;5008016;28;20208;-70
2021/10/29 01:26:49;;;;;;;16.90;14.33;;;;;;;4.33;100.00;98114.00;5008552;28;20744;-72
2021/10/29 01:29:17;;;;;;;20.17;15.63;;;;;;;4.28;100.00;98113.53;4996933;28;20223;-68
2021/10/29 01:31:45;;;;;;;18.93;15.40;;;;;;;4.22;100.00;98103.53;5000320;28;20232;-69
2021/10/29 01:34:13;;;;;;;19.73;15.30;;;;;;;4.32;100.00;98097.41;4972867;28;20389;-70
2021/10/29 01:36:41;;;;;;;19.10;15.30;;;;;;;4.35;100.00;98097.16;5007545;28;20208;-71
2021/10/29 01:39:11;;;;;;;18.10;15.67;;;;;;;4.45;100.00;98102.53;5010437;28;20212;-67
2021/10/29 01:41:39;;;;;;;20.43;15.83;;;;;;;4.26;100.00;98095.28;5010853;28;20239;-70
2021/10/29 01:44:07;;;;;;;15.40;13.80;;;;;;;4.39;100.00;98091.69;4998946;28;20225;-69
2021/10/29 01:46:35;;;;;;;15.87;13.70;;;;;;;4.24;100.00;98094.56;5004658;28;20216;-69
2021/10/29 01:49:03;;;;;;;15.07;13.20;;;;;;;4.19;100.00;98083.59;4976979;28;20305;-69
2021/10/29 01:51:31;;;;;;;16.03;12.90;;;;;;;4.14;100.00;98085.75;5002554;28;21033;-68
2021/10/29 01:53:59;;;;;;;14.77;13.03;;;;;;;4.18;100.00;98089.81;5010297;28;20707;-69
2021/10/29 01:56:29;;;;;;;16.87;14.13;;;;;;;4.32;100.00;98080.84;5006515;28;20583;-69
2021/10/29 01:58:57;;;;;;;14.30;12.80;;;;;;;4.19;100.00;98076.59;5001266;28;20219;-70
2021/10/29 02:01:25;;;;;;;14.90;13.27;;;;;;;4.07;100.00;98074.09;5011190;28;20441;-69
2021/10/29 02:03:53;;;;;;;17.77;14.53;;;;;;;4.00;100.00;98071.09;5011647;28;20647;-69
2021/10/29 02:06:21;;;;;;;17.43;15.00;;;;;;;3.97;100.00;98071.34;4992464;28;20527;-70
2021/10/29 02:08:49;;;;;;;20.40;15.70;;;;;;;4.04;100.00;98070.75;5016843;28;20212;-70
2021/10/29 02:11:18;;;;;;;17.53;15.47;;;;;;;4.07;100.00;98063.59;5011480;28;20228;-70
2021/10/29 02:13:47;;;;;;;15.80;13.93;;;;;;;3.91;100.00;98062.16;5001230;28;20325;-69
2021/10/29 02:16:15;;;;;;;17.87;14.63;;;;;;;3.75;100.00;98052.88;5020044;28;20211;-70
2021/10/29 02:18:43;;;;;;;17.67;14.33;;;;;;;3.72;100.00;98058.38;5013094;28;20301;-69
2021/10/29 02:21:11;;;;;;;18.00;14.93;;;;;;;3.66;100.00;98055.38;4969091;28;20477;-69
2021/10/29 02:23:39;;;;;;;17.50;13.80;;;;;;;3.75;100.00;98052.88;5010329;28;20625;-70
2021/10/29 02:26:06;;;;;;;16.97;14.27;;;;;;;3.70;100.00;98051.56;5021623;28;20214;-70
2021/10/29 02:28:35;;;;;;;17.87;14.50;;;;;;;3.81;100.00;98054.22;5012983;28;20204;-69
2021/10/29 02:31:04;;;;;;;15.93;14.23;;;;;;;3.82;100.00;98058.50;5008953;28;20234;-69
2021/10/29 02:33:32;;;;;;;17.07;12.83;;;;;;;3.83;100.00;98047.06;5018574;28;20844;-67
2021/10/29 02:36:00;;;;;;;17.57;12.83;;;;;;;3.80;100.00;98049.06;4972967;28;20218;-68
2021/10/29 02:38:28;;;;;;;20.43;14.20;;;;;;;3.79;100.00;98045.63;4978566;28;20515;-69
2021/10/29 02:40:56;;;;;;;18.27;14.77;;;;;;;3.75;100.00;98046.78;5007494;28;20224;-66
2021/10/29 02:43:25;;;;;;;18.43;14.40;;;;;;;3.78;100.00;98045.72;4994736;28;20781;-68
2021/10/29 02:45:53;;;;;;;16.37;14.63;;;;;;;3.76;100.00;98044.06;5014035;28;20208;-69
2021/10/29 02:48:23;;;;;;;19.20;15.23;;;;;;;3.64;100.00;98046.81;4989260;28;20836;-70
2021/10/29 02:50:55;;;;;;;16.87;14.63;;;;;;;3.69;100.00;98053.38;5010825;28;20771;-69
2021/10/29 02:53:25;;;;;;;18.07;14.80;;;;;;;3.65;100.00;98045.84;4991988;28;20282;-71
2021/10/29 02:55:53;;;;;;;17.50;13.43;;;;;;;3.72;100.00;98044.41;4973806;28;20262;-72
2021/10/29 02:58:21;;;;;;;16.90;15.10;;;;;;;3.74;100.00;98050.38;5013879;28;20596;-71
2021/10/29 03:00:49;;;;;;;16.70;14.47;;;;;;;3.65;100.00;98040.59;4997337;28;20232;-70
2021/10/29 03:03:17;;;;;;;18.53;15.10;;;;;;;3.70;100.00;98039.31;5013378;28;20202;-69
2021/10/29 03:05:46;;;;;;;19.70;15.00;;;;;;;3.63;100.00;98043.38;5006440;28;20224;-71
2021/10/29 03:08:14;;;;;;;19.37;15.00;;;;;;;3.57;100.00;98033.31;5016129;28;20283;-71
2021/10/29 03:10:42;;;;;;;19.23;15.57;;;;;;;3.62;100.00;98028.59;4982795;28;20274;-70
2021/10/29 03:13:10;;;;;;;16.50;14.80;;;;;;;3.60;100.00;98025.25;5017282;28;20324;-72
2021/10/29 03:15:38;;;;;;;15.97;14.00;;;;;;;3.61;100.00;98032.97;5022271;28;20224;-70
2021/10/29 03:18:06;;;;;;;20.97;15.90;;;;;;;3.64;100.00;98033.69;5021527;28;20204;-70
2021/10/29 03:20:34;;;;;;;18.70;15.63;;;;;;;3.54;100.00;98026.56;5004685;28;20962;-69
2021/10/29 03:23:03;;;;;;;18.60;15.23;;;;;;;3.53;100.00;98024.03;5020005;28;20207;-69
2021/10/29 03:25:31;;;;;;;16.97;14.70;;;;;;;3.42;100.00;98028.31;4982891;28;20215;-70
2021/10/29 03:27:59;;;;;;;15.17;13.57;;;;;;;3.46;100.00;98027.13;5017166;28;20214;-70
2021/10/29 03:30:27;;;;;;;17.53;13.43;;;;;;;3.43;100.00;98024.75;5018972;28;20212;-70
2021/10/29 03:32:57;;;;;;;16.17;13.07;;;;;;;3.32;100.00;98024.75;5011575;28;20207;-68
2021/10/29 03:35:25;;;;;;;16.30;13.03;;;;;;;3.36;100.00;98026.19;5005854;28;20223;-70
2021/10/29 03:38:08;;;;;;;15.60;12.77;;;;;;;3.32;100.00;98028.19;5019468;28;20256;-70
2021/10/29 03:40:45;;;;;;;16.23;13.67;;;;;;;3.25;100.00;98027.00;4982372;28;20220;-70
2021/10/29 03:43:18;;;;;;;17.10;12.60;;;;;;;3.19;100.00;98030.91;5015135;28;20204;-71
2021/10/29 03:45:50;;;;;;;16.43;13.43;;;;;;;3.13;100.00;98022.69;5021993;28;20215;-71
2021/10/29 03:48:19;;;;;;;15.73;13.60;;;;;;;3.15;100.00;98019.00;5019896;28;20710;-70
2021/10/29 03:51:00;;;;;;;14.43;12.63;;;;;;;3.10;100.00;98015.91;5004917;28;20251;-71
2021/10/29 03:53:33;;;;;;;14.70;13.10;;;;;;;3.01;100.00;98027.06;5019383;28;20207;-70
2021/10/29 03:56:04;;;;;;;15.50;13.07;;;;;;;3.02;100.00;98028.75;4961127;28;20460;-70
2021/10/29 03:58:32;;;;;;;16.67;13.87;;;;;;;3.04;100.00;98022.44;4994302;28;20220;-70
2021/10/29 04:01:00;;;;;;;15.37;13.30;;;;;;;3.01;100.00;98019.22;5015283;28;20470;-70
2021/10/29 04:03:29;;;;;;;15.10;12.40;;;;;;;2.98;100.00;98022.06;5016104;28;20632;-70
2021/10/29 04:05:57;;;;;;;15.63;13.17;;;;;;;3.01;100.00;98008.75;5002036;28;20325;-70
2021/10/29 04:08:25;;;;;;;14.40;12.87;;;;;;;3.09;100.00;98021.25;5020136;28;20644;-69
2021/10/29 04:10:53;;;;;;;15.47;13.33;;;;;;;2.95;100.00;98022.31;5011287;28;20690;-69
2021/10/29 04:13:23;;;;;;;15.87;13.00;;;;;;;2.97;100.00;98025.63;4987290;28;20922;-69
2021/10/29 04:15:51;;;;;;;14.13;12.63;;;;;;;3.03;100.00;98035.66;5010134;28;20223;-70
2021/10/29 04:18:19;;;;;;;16.97;13.37;;;;;;;3.00;100.00;98026.22;5017260;28;20239;-67
2021/10/29 04:20:47;;;;;;;17.70;14.47;;;;;;;2.96;100.00;98030.03;4998545;28;20362;-68
2021/10/29 04:23:15;;;;;;;15.47;12.67;;;;;;;2.95;100.00;98030.16;5019388;28;20215;-68
2021/10/29 04:25:43;;;;;;;15.57;13.10;;;;;;;2.94;100.00;98031.91;5014093;28;20592;-68
2021/10/29 04:28:12;;;;;;;17.17;14.37;;;;;;;3.03;100.00;98026.03;4987472;28;20220;-67
2021/10/29 04:30:42;;;;;;;15.57;13.53;;;;;;;3.13;100.00;98026.13;5013972;28;20204;-68
2021/10/29 04:33:11;;;;;;;14.13;12.57;;;;;;;3.10;100.00;98029.00;5003518;28;20214;-68
2021/10/29 04:35:41;;;;;;;13.57;12.17;;;;;;;2.92;100.00;98019.91;5000443;28;20233;-67
2021/10/29 04:38:11;;;;;;;14.97;12.33;;;;;;;3.15;100.00;98015.56;5018703;28;20206;-68
2021/10/29 04:40:41;;;;;;;12.97;11.37;;;;;;;3.09;100.00;98009.00;5012313;28;20204;-68
2021/10/29 04:43:10;;;;;;;12.93;11.67;;;;;;;2.85;100.00;98009.91;4983886;28;20231;-68
2021/10/29 04:45:46;;;;;;;13.10;11.73;;;;;;;2.84;100.00;98004.78;4968921;28;20293;-69
2021/10/29 04:48:15;;;;;;;13.47;11.83;;;;;;;2.80;100.00;98005.94;5016234;28;20400;-68
2021/10/29 04:50:43;;;;;;;14.93;12.50;;;;;;;2.69;100.00;98006.75;5015376;28;20211;-68
2021/10/29 04:53:11;;;;;;;15.57;12.93;;;;;;;2.68;100.00;98016.41;4995141;28;20318;-68
2021/10/29 04:55:39;;;;;;;13.57;12.17;;;;;;;2.64;100.00;98011.50;5013175;28;20235;-69
2021/10/29 04:58:08;;;;;;;14.30;12.50;;;;;;;2.66;100.00;97999.97;5012822;28;20223;-69
2021/10/29 05:00:37;;;;;;;15.40;13.23;;;;;;;2.64;100.00;98016.72;5003104;28;20828;-70
2021/10/29 05:03:07;;;;;;;14.77;13.20;;;;;;;2.66;100.00;98010.44;4986941;28;20554;-69
2021/10/29 05:05:35;;;;;;;14.60;12.80;;;;;;;2.67;100.00;98013.88;5003812;28;20607;-69
2021/10/29 05:08:04;;;;;;;14.13;12.43;;;;;;;2.78;100.00;98005.22;5009331;28;20341;-69
2021/10/29 05:10:33;;;;;;;14.97;12.83;;;;;;;2.74;100.00;98009.84;5020742;28;20204;-68
2021/10/29 05:13:01;;;;;;;13.13;11.73;;;;;;;2.98;100.00;98001.13;4999552;28;20204;-70
2021/10/29 05:15:29;;;;;;;13.07;11.67;;;;;;;2.98;100.00;98001.13;5014133;28;20722;-68
2021/10/29 05:17:57;;;;;;;13.83;11.83;;;;;;;3.03;100.00;98006.84;4981114;28;20409;-69
2021/10/29 05:20:26;;;;;;;12.97;11.57;;;;;;;2.96;100.00;97997.78;5018569;28;20487;-68
2021/10/29 05:22:54;;;;;;;14.83;11.97;;;;;;;3.24;100.00;98001.75;5018401;28;20363;-68
2021/10/29 05:25:22;;;;;;;13.93;12.33;;;;;;;3.43;100.00;97985.47;5017455;28;20561;-69
2021/10/29 05:27:50;;;;;;;14.90;12.93;;;;;;;3.07;100.00;97989.13;5006480;28;20875;-69
2021/10/29 05:30:18;;;;;;;13.70;12.30;;;;;;;2.92;100.00;97989.31;5016806;28;20208;-69
2021/10/29 05:32:46;;;;;;;15.70;12.50;;;;;;;2.73;100.00;97987.25;4990597;28;20251;-69
2021/10/29 05:35:14;;;;;;;14.43;12.90;;;;;;;2.78;100.00;97990.34;5004995;28;20227;-68
2021/10/29 05:37:43;;;;;;;14.30;12.73;;;;;;;2.67;100.00;97987.72;5014571;28;20235;-69
2021/10/29 05:40:12;;;;;;;14.70;13.07;;;;;;;2.57;100.00;97969.22;5012711;28;20224;-68
2021/10/29 05:42:40;;;;;;;16.13;13.60;;;;;;;2.55;100.00;97964.13;5009236;28;20461;-69
2021/10/29 05:45:10;;;;;;;25.57;18.27;;;;;;;2.57;100.00;97966.63;5023012;28;20203;-69
2021/10/29 05:47:40;;;;;;;17.47;15.10;;;;;;;2.58;100.00;97974.38;4990755;28;20607;-67
2021/10/29 05:50:10;;;;;;;15.33;13.33;;;;;;;2.56;100.00;97972.81;5018319;28;20500;-67
2021/10/29 05:52:40;;;;;;;14.60;13.10;;;;;;;2.53;100.00;97968.66;5017835;28;20258;-69
2021/10/29 05:55:14;;;;;;;13.47;12.07;;;;;;;2.55;100.00;97965.91;5020061;28;20230;-68
2021/10/29 05:57:43;;;;;;;14.13;12.20;;;;;;;2.46;100.00;97980.47;5001558;28;20207;-68
2021/10/29 06:00:13;;;;;;;13.43;11.97;;;;;;;2.64;100.00;97977.47;5021222;28;20231;-68
2021/10/29 06:02:41;;;;;;;14.90;11.67;;;;;;;2.49;100.00;97985.53;5023030;28;20224;-68
2021/10/29 06:05:10;;;;;;;13.73;12.20;;;;;;;2.48;100.00;97990.84;4969339;28;20425;-69
2021/10/29 06:07:38;;;;;;;14.10;12.53;;;;;;;2.46;100.00;97983.09;5018475;28;20212;-69
2021/10/29 06:10:10;;;;;;;15.10;12.57;;;;;;;2.43;100.00;97988.56;5007396;28;20204;-69
2021/10/29 06:12:38;;;;;;;15.17;12.33;;;;;;;2.57;100.00;97985.78;5001954;28;20236;-69
2021/10/29 06:15:07;;;;;;;15.20;13.03;;;;;;;2.51;100.00;97982.78;5001534;28;20211;-68
2021/10/29 06:17:36;;;;;;;14.67;12.67;;;;;;;2.59;100.00;97988.28;5013300;28;21057;-69
2021/10/29 06:20:06;;;;;;;16.03;12.80;;;;;;;2.56;100.00;97985.88;4985910;28;20617;-69
2021/10/29 06:22:37;;;;;;;14.93;13.43;;;;;;;2.36;100.00;97993.44;5016412;28;20224;-67
2021/10/29 06:25:11;;;;;;;15.10;13.53;;;;;;;2.52;100.00;97984.44;5015267;28;20389;-69
2021/10/29 06:30:27;;;;;;;15.80;14.20;;;;;;;2.49;100.00;97997.75;5003613;28;20802;-69
2021/10/29 06:32:55;;;;;;;15.03;13.27;;;;;;;2.56;100.00;97991.13;5019564;28;20211;-68
2021/10/29 06:35:23;;;;;;;15.17;13.37;;;;;;;2.65;100.00;97979.13;4983853;28;20670;-68
2021/10/29 06:37:51;;;;;;;15.37;13.37;;;;;;;2.42;100.00;97979.91;5014845;28;20220;-67
2021/10/29 06:40:19;;;;;;;15.83;13.00;;;;;;;2.38;100.00;97980.22;5012706;28;20761;-67
2021/10/29 06:42:51;;;;;;;18.67;13.90;;;;;;;2.33;100.00;97979.72;5007196;28;20239;-69
2021/10/29 06:45:45;;;;;;;15.57;13.90;;;;;;;2.35;100.00;97980.44;5004940;28;20247;-69
2021/10/29 06:48:25;;;;;;;16.40;14.20;;;;;;;2.40;100.00;97983.56;5014800;28;20275;-69
2021/10/29 06:59:17;;;;;;;17.30;14.93;;;;;;;2.67;100.00;97980.72;5004278;28;20211;-69
2021/10/29 07:01:49;;;;;;;20.07;15.07;;;;;;;2.77;100.00;97985.25;5022410;28;20236;-69
2021/10/29 07:04:32;;;;;;;18.60;15.33;;;;;;;2.63;100.00;97987.09;5015055;28;20425;-69
2021/10/29 07:40:34;;;;;;;18.40;16.30;;;;;;;2.94;100.00;97982.19;4999287;28;20333;-69
2021/10/29 07:43:10;;;;;;;17.87;15.83;;;;;;;3.09;100.00;97992.47;5011349;28;20208;-69
2021/10/29 07:45:38;;;;;;;19.97;16.33;;;;;;;3.25;100.00;97981.66;5009086;28;20216;-69
2021/10/29 07:48:08;;;;;;;17.80;15.90;;;;;;;3.30;100.00;97985.56;5017629;28;20303;-69
2021/10/29 07:50:36;;;;;;;17.60;15.73;;;;;;;3.17;100.00;97987.47;5012986;28;20212;-70
2021/10/29 07:53:04;;;;;;;18.20;16.20;;;;;;;3.13;100.00;97984.25;5018681;28;20311;-69
2021/10/29 07:55:32;;;;;;;20.80;16.97;;;;;;;3.16;100.00;97980.56;4988591;28;20212;-69
2021/10/29 07:58:02;;;;;;;20.87;16.70;;;;;;;3.33;100.00;97984.50;5013362;28;20224;-69
2021/10/29 08:00:32;;;;;;;21.00;16.60;;;;;;;3.23;100.00;97992.22;5010040;28;20216;-69
2021/10/29 08:03:04;;;;;;;26.83;20.30;;;;;;;3.28;100.00;97990.09;5017139;28;20295;-69
2021/10/29 08:05:35;;;;;;;21.33;19.07;;;;;;;3.32;100.00;97995.94;5021751;28;20200;-70
2021/10/29 08:08:03;;;;;;;27.40;20.57;;;;;;;3.46;100.00;97994.88;5020875;28;20227;-69
2021/10/29 08:10:33;;;;;;;25.57;20.57;;;;;;;3.32;100.00;97990.69;4979480;28;20675;-69
2021/10/29 08:13:02;;;;;;;21.87;18.47;;;;;;;3.37;100.00;97995.56;5009153;28;20201;-68
2021/10/29 08:15:32;;;;;;;24.67;17.80;;;;;;;3.39;100.00;97994.50;5004798;28;20200;-69
2021/10/29 08:18:07;;;;;;;22.17;17.77;;;;;;;3.40;100.00;97990.09;5000839;28;20664;-68
2021/10/29 08:20:39;;;;;;;23.70;17.87;;;;;;;3.47;100.00;97999.16;5017650;28;20632;-70
2021/10/29 08:23:09;;;;;;;22.97;18.07;;;;;;;3.43;100.00;97989.88;5017070;28;20212;-68
2021/10/29 08:25:37;;;;;;;19.57;17.13;;;;;;;3.66;100.00;97992.47;4989535;28;20227;-69
2021/10/29 08:28:05;;;;;;;21.67;18.07;;;;;;;3.67;100.00;97992.38;5013941;28;20689;-68
2021/10/29 08:30:49;;;;;;;22.87;17.60;;;;;;;3.91;100.00;97986.13;4997866;28;20239;-69
2021/10/29 08:33:18;;;;;;;20.97;17.37;;;;;;;3.91;100.00;97983.50;5000986;28;20464;-69
2021/10/29 08:35:48;;;;;;;21.83;18.57;;;;;;;3.85;100.00;97987.47;5022725;28;20215;-67
2021/10/29 08:38:17;;;;;;;22.23;19.30;;;;;;;3.93;100.00;97978.97;5013584;28;20251;-69
2021/10/29 08:40:45;;;;;;;20.17;17.00;;;;;;;4.05;100.00;97974.53;4986597;28;20688;-70
2021/10/29 08:43:14;;;;;;;23.60;18.67;;;;;;;4.06;100.00;97984.06;5013581;28;20196;-69
2021/10/29 08:45:42;;;;;;;24.27;19.37;;;;;;;4.09;100.00;97991.69;5009992;28;20220;-69
2021/10/29 08:48:12;;;;;;;21.03;17.83;;;;;;;4.32;100.00;97986.41;5003547;28;20216;-68
2021/10/29 08:50:43;;;;;;;22.87;17.93;;;;;;;4.42;100.00;97983.88;5017526;28;20210;-69
2021/10/29 08:53:12;;;;;;;24.40;18.83;;;;;;;4.33;100.00;97985.44;5016334;28;20231;-68
2021/10/29 08:55:40;;;;;;;21.30;16.83;;;;;;;4.33;100.00;97986.25;4983611;28;20223;-68
2021/10/29 08:58:09;;;;;;;20.33;17.40;;;;;;;4.32;100.00;97981.16;5014325;28;20223;-68
2021/10/29 09:00:42;;;;;;;22.80;19.37;;;;;;;4.36;100.00;97987.81;4975445;28;20429;-68
2021/10/29 09:03:23;;;;;;;21.23;18.33;;;;;;;4.52;100.00;97973.41;5018610;28;20219;-69
2021/10/29 09:06:04;;;;;;;22.37;18.77;;;;;;;4.58;100.00;97971.13;5022739;28;20203;-69
2021/10/29 09:08:49;;;;;;;23.27;18.30;;;;;;;4.55;100.00;97960.06;5012463;28;20219;-68
2021/10/29 09:31:30;;;;;;;23.83;20.03;;;;;;;4.97;100.00;97957.47;4982483;28;20236;-68
2021/10/29 09:34:02;;;;;;;21.20;18.97;;;;;;;5.12;100.00;97951.84;5022760;28;20237;-68
2021/10/29 09:36:43;;;;;;;22.77;20.23;;;;;;;5.07;100.00;97944.34;5018291;28;20216;-69
2021/10/29 09:39:15;;;;;;;24.10;19.80;;;;;;;5.14;100.00;97944.66;5015854;28;20304;-68
2021/10/29 09:41:44;;;;;;;26.27;21.63;;;;;;;5.19;100.00;97945.97;5019777;28;20254;-68
2021/10/29 09:44:16;;;;;;;23.93;20.97;;;;;;;5.32;100.00;97950.16;5006185;28;20278;-69
2021/10/29 09:46:52;;;;;;;24.90;21.00;;;;;;;5.34;100.00;97946.44;4985079;28;20223;-69
2021/10/29 09:49:26;;;;;;;23.93;21.00;;;;;;;5.41;100.00;97943.28;5022530;28;20257;-68
2021/10/29 09:52:08;;;;;;;22.73;20.27;;;;;;;5.46;100.00;97952.41;5024532;28;20534;-67
2021/10/29 09:54:45;;;;;;;26.60;21.43;;;;;;;5.54;100.00;97950.94;5017227;28;20207;-68
2021/10/29 09:57:15;;;;;;;24.73;21.10;;;;;;;5.47;100.00;97946.19;5019590;28;20231;-69
2021/10/29 09:59:43;;;;;;;23.20;20.40;;;;;;;5.62;100.00;97944.03;5002865;28;20283;-66
2021/10/29 10:02:19;;;;;;;27.07;21.10;;;;;;;5.60;100.00;97943.34;4986137;28;20263;-69
2021/10/29 10:04:49;;;;;;;24.77;20.63;;;;;;;5.63;100.00;97947.50;5019308;28;20215;-69
2021/10/29 10:07:19;;;;;;;28.10;21.17;;;;;;;5.68;100.00;97934.78;5021926;28;20205;-69
2021/10/29 10:09:49;;;;;;;26.90;20.93;;;;;;;5.54;100.00;97935.97;5019656;28;20212;-69
2021/10/29 10:12:20;;;;;;;28.13;21.10;;;;;;;5.67;100.00;97925.25;5022375;28;20692;-69
2021/10/29 10:14:48;;;;;;;31.70;21.07;;;;;;;5.61;100.00;97918.72;5002577;28;20422;-70
2021/10/29 10:17:17;;;;;;;28.47;23.17;;;;;;;5.85;100.00;97914.03;5019470;28;20228;-69
2021/10/29 10:19:45;;;;;;;25.80;21.43;;;;;;;5.79;100.00;97913.63;4988683;28;20217;-69
2021/10/29 10:22:16;;;;;;;28.57;22.37;;;;;;;5.87;100.00;97912.13;5019386;28;20460;-69
2021/10/29 10:24:45;;;;;;;26.43;21.53;;;;;;;5.87;100.00;97918.22;5021313;28;20686;-68
2021/10/29 10:27:51;;;;;;;27.90;22.20;;;;;;;5.92;100.00;97909.94;5018507;28;20207;-69
2021/10/29 10:30:45;;;;;;;25.03;22.07;;;;;;;6.00;100.00;97914.50;4998552;28;20251;-69
2021/10/29 10:41:56;;;;;;;26.70;21.93;;;;;;;6.08;100.00;97898.91;5017389;28;20329;-68
2021/10/29 10:44:46;;;;;;;24.27;21.20;;;;;;;6.06;100.00;97898.19;5003352;28;20205;-69
2021/10/29 10:47:22;;;;;;;25.87;20.30;;;;;;;6.07;100.00;97900.69;5018089;28;20534;-68
2021/10/29 10:50:06;;;;;;;29.50;22.43;;;;;;;6.55;100.00;97894.72;4988079;28;20219;-68
2021/10/29 10:53:36;;;;;;;26.93;21.20;;;;;;;6.60;100.00;97895.94;5016062;28;20259;-69
2021/10/29 10:56:14;;;;;;;26.90;21.97;;;;;;;6.55;100.00;97886.81;5014271;28;20231;-67
2021/10/29 10:58:58;;;;;;;29.60;23.13;;;;;;;6.64;100.00;97880.69;5021545;28;20231;-67
2021/10/29 11:07:39;;;;;;;26.60;21.80;;;;;;;6.46;100.00;97873.53;5006594;28;20196;-68
2021/10/29 11:10:08;;;;;;;35.10;24.03;;;;;;;6.58;100.00;97870.75;5019539;28;20209;-68
2021/10/29 11:13:09;;;;;;;27.53;23.27;;;;;;;6.78;100.00;97864.44;5007037;28;20311;-68
2021/10/29 11:15:37;;;;;;;30.30;23.77;;;;;;;6.78;100.00;97861.00;5009674;28;20346;-69
2021/10/29 11:18:28;;;;;;;30.07;24.00;;;;;;;6.54;100.00;97850.94;5020395;28;20224;-69
2021/10/29 11:21:06;;;;;;;29.37;22.10;;;;;;;6.93;100.00;97849.00;5015219;28;20220;-69
2021/10/29 11:23:35;;;;;;;29.83;23.47;;;;;;;6.93;100.00;97849.00;4984793;28;20715;-69
2021/10/29 11:26:05;;;;;;;26.20;23.20;;;;;;;6.86;100.00;97844.47;5019954;28;20210;-69
2021/10/29 11:28:35;;;;;;;26.13;21.63;;;;;;;6.73;100.00;97844.78;5013877;28;20204;-69
2021/10/29 11:31:05;;;;;;;26.33;22.77;;;;;;;6.78;100.00;97837.28;5019254;28;20220;-68
2021/10/29 11:33:33;;;;;;;29.53;23.33;;;;;;;7.03;100.00;97835.81;5003366;28;20719;-66
2021/10/29 11:36:05;;;;;;;27.43;22.67;;;;;;;7.04;100.00;97824.28;5018115;28;20207;-69
2021/10/29 11:38:35;;;;;;;25.60;21.83;;;;;;;7.10;100.00;97825.53;5014023;28;20944;-68
2021/10/29 11:41:11;;;;;;;24.67;20.60;;;;;;;7.07;100.00;97818.72;4990077;28;20321;-68
2021/10/29 11:43:39;;;;;;;24.80;22.07;;;;;;;6.94;100.00;97818.25;5016630;28;20527;-69
2021/10/29 11:46:10;;;;;;;28.43;23.97;;;;;;;7.10;100.00;97818.44;5017983;28;20199;-68
2021/10/29 11:48:45;;;;;;;24.90;21.73;;;;;;;7.04;100.00;97818.19;5004536;28;20652;-69
2021/10/29 11:51:17;;;;;;;25.60;22.87;;;;;;;7.26;100.00;97829.31;5014954;28;20234;-67
2021/10/29 11:53:49;;;;;;;25.30;22.37;;;;;;;7.41;100.00;97825.22;5020368;28;20253;-67
2021/10/29 11:56:43;;;;;;;27.13;21.87;;;;;;;7.48;100.00;97818.38;4984741;28;20216;-68
2021/10/29 12:07:47;;;;;;;27.70;23.87;;;;;;;7.74;100.00;97796.53;5016179;28;20296;-68
2021/10/29 12:10:18;;;;;;;26.17;22.30;;;;;;;7.81;100.00;97788.84;5020874;28;20302;-69
2021/10/29 12:12:48;;;;;;;29.03;24.57;;;;;;;8.05;100.00;97787.41;4983632;28;20252;-68
2021/10/29 12:15:20;;;;;;;27.00;22.10;;;;;;;8.06;100.00;97786.41;5004392;28;20216;-69
2021/10/29 12:17:52;;;;;;;29.33;23.67;;;;;;;8.10;100.00;97788.56;5015184;28;20212;-68
2021/10/29 12:20:24;;;;;;;26.23;22.63;;;;;;;8.32;100.00;97786.44;5001705;28;20217;-68
2021/10/29 12:23:00;;;;;;;30.17;22.60;;;;;;;8.18;100.00;97789.66;5015995;28;20652;-68
2021/10/29 12:25:34;;;;;;;25.67;22.97;;;;;;;8.35;100.00;97783.47;5015661;28;20211;-68
2021/10/29 12:28:06;;;;;;;28.83;23.63;;;;;;;8.77;100.00;97781.94;4981046;28;20731;-69
2021/10/29 12:30:37;;;;;;;25.80;23.07;;;;;;;8.88;100.00;97772.88;5016267;28;20211;-68
2021/10/29 12:51:53;;;;;;;25.17;22.53;;;;;;;11.60;100.00;97726.88;5020068;28;20224;-70
2021/10/29 12:53:24;;;;;;;22.47;20.10;;;;;;;12.14;100.00;97718.00;5000151;28;20208;-68
2021/10/29 12:59:04;;;;;;;24.50;21.90;;;;;;;11.90;100.00;97725.13;4970649;28;20469;-68
2021/10/29 13:01:36;;;;;;;21.90;19.70;;;;;;;12.30;100.00;97724.94;5012986;28;20278;-68
2021/10/29 13:04:07;;;;;;;23.63;20.57;;;;;;;12.57;100.00;97720.88;5019530;28;20211;-70
2021/10/29 13:06:38;;;;;;;22.30;19.97;;;;;;;12.15;100.00;97709.03;5007293;28;20664;-68
2021/10/29 13:09:15;;;;;;;22.37;20.07;;;;;;;12.39;100.00;97718.56;5018794;28;20424;-69
2021/10/29 13:11:50;;;;;;;23.90;21.40;;;;;;;12.62;100.00;97716.81;5015540;28;20231;-68
2021/10/29 13:14:24;;;;;;;22.97;20.60;;;;;;;12.60;100.00;97719.66;4974050;28;21505;-69
2021/10/29 13:16:53;;;;;;;23.97;21.00;;;;;;;12.56;100.00;97718.38;4996035;28;20238;-68
2021/10/29 13:25:20;;;;;;;23.47;21.03;;;;;;;12.63;100.00;97726.44;5016049;28;20211;-67
2021/10/29 13:52:41;;;;;;;25.37;21.93;;;;;;;10.02;100.00;97703.63;5008724;28;20228;-68